Terminal Aerodrome Forecast
Issued by NWS

Home | Current Version | Previous Version | Text Only | Print | Product List | Glossary On
Versions: 1 2 3 4 5 6 7 8 9 10 11 12 13 14 15 16 17 18 19 20 21 22 23 24 25 26 27 28 29
005
FTUS43 KDLH 230535
TAFHYR
TAF
KHYR 230535Z 2306/2406 16007KT P6SM SKC
     FM231400 18014G23KT P6SM SCT035 SCT090
     FM232000 19017G25KT P6SM -TSRA OVC050CB
     FM240000 19011G18KT 5SM -TSRA BKN040CB=

USA.gov is the U.S. government's official web portal to all federal, state and local government web resources and services.